Vane Brothers — WDC2297 — position and weather

sailwx.info

Track history (hours):
 
Tides and Currents Weather Stations Pressure Air Temp Water Temp Dewpoint Dewpoint Depression Visibility Wind Speed Wind Dir Waves Ship Positions

Vane Brothers

Owner: Vane Line Bunkering, Inc., Philadelphia, PA. More information available from US FCC via Universal Licensing System and Coast Guard Vessel Documentation Center.

Last reported at 2018-May-21 03:14 UTC. Time now 2018-May-21 14:59 UTC.
Position N 40°37' W 074°12'.

Length 24 m.

Type: Tug. MMSI: 366990810.

Date/timePositionNaut miles runAvg speedWind from/ knotsBaromVisibWave heightAir tempDewpointWater temp
2018-May-21 03:14N 40°37' W 074°12'2 5.7
2018-May-21 02:53N 40°39' W 074°11'3 6.5
2018-May-21 02:29N 40°39' W 074°07'3 7.0
2018-May-21 02:00N 40°40' W 074°03'3 6.1
2018-May-21 01:30N 40°42' W 074°00'3 5.2
2018-May-21 01:00N 40°44' W 073°58'  
2018-May-18 03:06N 40°46' W 073°57'1 5.6
2018-May-18 03:00N 40°45' W 073°58'1 2.7
2018-May-18 02:30N 40°44' W 073°58'1 1.3
2018-May-18 02:00N 40°43' W 073°58'1 2.2
2018-May-18 01:30N 40°43' W 073°59'2 4.4
2018-May-18 01:00N 40°41' W 074°01'2 4.4
2018-May-18 00:30N 40°39' W 074°03'2 3.7
2018-May-18 00:00N 40°39' W 074°06'1 2.7
2018-May-17 23:28N 40°39' W 074°07'1 2.4
2018-May-17 23:00N 40°38' W 074°09'2 3.9
2018-May-17 22:30N 40°39' W 074°11'1 0.0
2018-May-17 00:43N 40°38' W 074°12'2 7.5
2018-May-17 00:30N 40°39' W 074°10'5 9.3
2018-May-17 00:00N 40°40' W 074°04'1 1.7
2018-May-16 23:28N 40°41' W 074°05'0 0.0
2018-May-16 22:59N 40°41' W 074°05'0 0.0
2018-May-16 22:30N 40°41' W 074°05'1 1.5
2018-May-16 22:00N 40°40' W 074°04'3 4.6
2018-May-16 21:16N 40°39' W 074°08'3 5.3
2018-May-16 20:47N 40°39' W 074°11'1 0.0
2018-May-16 04:17N 40°39' W 074°10'2 6.2
2018-May-16 04:00N 40°39' W 074°08'3 5.2
2018-May-16 03:30N 40°39' W 074°04'3 6.1
2018-May-16 03:00N 40°41' W 074°01'3 6.1
2018-May-16 02:30N 40°43' W 073°58'4 0.1
2018-May-14 20:38N 40°47' W 073°55'1 5.1
2018-May-14 20:30N 40°47' W 073°56'3 5.2
2018-May-14 20:00N 40°44' W 073°58'2 4.2
2018-May-14 19:30N 40°42' W 073°59'1 1.5
2018-May-14 19:00N 40°42' W 073°60'2 3.3
2018-May-14 18:30N 40°41' W 074°01'2 3.3
2018-May-14 18:00N 40°40' W 074°03'1 2.7
2018-May-14 17:30N 40°39' W 074°04'3 5.4
2018-May-14 17:00N 40°39' W 074°08'2 4.7
2018-May-14 16:29N 40°39' W 074°11'1 0.0
2018-May-13 00:55N 40°38' W 074°12'3 8.1
2018-May-13 00:30N 40°39' W 074°07'3 5.3
2018-May-13 00:00N 40°41' W 074°05'0 0.1
2018-May-12 23:30N 40°41' W 074°05'0 0.0
2018-May-12 23:00N 40°41' W 074°05'0 0.0
2018-May-12 22:30N 40°41' W 074°05'0 0.0
2018-May-12 22:00N 40°41' W 074°05'0 0.4
2018-May-12 21:30N 40°40' W 074°04'0 0.3
2018-May-12 21:00N 40°41' W 074°04'0 0.8
2018-May-12 20:31N 40°40' W 074°04'4 7.4
2018-May-12 20:00N 40°39' W 074°08'  
Track history (hours):
 
Tides and Currents Weather Stations Pressure Air Temp Water Temp Dewpoint Dewpoint Depression Visibility Wind Speed Wind Dir Waves Ship Positions

Vane Brothers

Owner: Vane Line Bunkering, Inc., Philadelphia, PA. More information available from US FCC via Universal Licensing System and Coast Guard Vessel Documentation Center.

Last reported at 2018-May-21 03:14 UTC. Time now 2018-May-21 14:59 UTC.
Position N 40°37' W 074°12'.

Length 24 m.

Type: Tug. MMSI: 366990810.

Date/timePositionNaut miles runAvg speedWind from/ knotsBaromVisibWave heightAir tempDewpointWater temp
2018-May-21 03:14N 40°37' W 074°12'2 5.7
2018-May-21 02:53N 40°39' W 074°11'3 6.5
2018-May-21 02:29N 40°39' W 074°07'3 7.0
2018-May-21 02:00N 40°40' W 074°03'3 6.1
2018-May-21 01:30N 40°42' W 074°00'3 5.2
2018-May-21 01:00N 40°44' W 073°58'  
2018-May-18 03:06N 40°46' W 073°57'1 5.6
2018-May-18 03:00N 40°45' W 073°58'1 2.7
2018-May-18 02:30N 40°44' W 073°58'1 1.3
2018-May-18 02:00N 40°43' W 073°58'1 2.2
2018-May-18 01:30N 40°43' W 073°59'2 4.4
2018-May-18 01:00N 40°41' W 074°01'2 4.4
2018-May-18 00:30N 40°39' W 074°03'2 3.7
2018-May-18 00:00N 40°39' W 074°06'1 2.7
2018-May-17 23:28N 40°39' W 074°07'1 2.4
2018-May-17 23:00N 40°38' W 074°09'2 3.9
2018-May-17 22:30N 40°39' W 074°11'1 0.0
2018-May-17 00:43N 40°38' W 074°12'2 7.5
2018-May-17 00:30N 40°39' W 074°10'5 9.3
2018-May-17 00:00N 40°40' W 074°04'1 1.7
2018-May-16 23:28N 40°41' W 074°05'0 0.0
2018-May-16 22:59N 40°41' W 074°05'0 0.0
2018-May-16 22:30N 40°41' W 074°05'1 1.5
2018-May-16 22:00N 40°40' W 074°04'3 4.6
2018-May-16 21:16N 40°39' W 074°08'3 5.3
2018-May-16 20:47N 40°39' W 074°11'1 0.0
2018-May-16 04:17N 40°39' W 074°10'2 6.2
2018-May-16 04:00N 40°39' W 074°08'3 5.2
2018-May-16 03:30N 40°39' W 074°04'3 6.1
2018-May-16 03:00N 40°41' W 074°01'3 6.1
2018-May-16 02:30N 40°43' W 073°58'4 0.1
2018-May-14 20:38N 40°47' W 073°55'1 5.1
2018-May-14 20:30N 40°47' W 073°56'3 5.2
2018-May-14 20:00N 40°44' W 073°58'2 4.2
2018-May-14 19:30N 40°42' W 073°59'1 1.5
2018-May-14 19:00N 40°42' W 073°60'2 3.3
2018-May-14 18:30N 40°41' W 074°01'2 3.3
2018-May-14 18:00N 40°40' W 074°03'1 2.7
2018-May-14 17:30N 40°39' W 074°04'3 5.4
2018-May-14 17:00N 40°39' W 074°08'2 4.7
2018-May-14 16:29N 40°39' W 074°11'1 0.0
2018-May-13 00:55N 40°38' W 074°12'3 8.1
2018-May-13 00:30N 40°39' W 074°07'3 5.3
2018-May-13 00:00N 40°41' W 074°05'0 0.1
2018-May-12 23:30N 40°41' W 074°05'0 0.0
2018-May-12 23:00N 40°41' W 074°05'0 0.0
2018-May-12 22:30N 40°41' W 074°05'0 0.0
2018-May-12 22:00N 40°41' W 074°05'0 0.4
2018-May-12 21:30N 40°40' W 074°04'0 0.3
2018-May-12 21:00N 40°41' W 074°04'0 0.8
2018-May-12 20:31N 40°40' W 074°04'4 7.4
2018-May-12 20:00N 40°39' W 074°08'  

Dump ship's entire track history